createdAt,value
2023-03-19T00:01:46.522Z,12.74
2023-03-19T00:04:41.971Z,12.63
2023-03-19T00:07:27.519Z,12.59
2023-03-19T00:10:35.942Z,12.65
2023-03-19T00:13:31.793Z,12.62
2023-03-19T00:16:36.249Z,12.64
2023-03-19T00:19:24.712Z,12.63
2023-03-19T00:22:18.246Z,12.60
2023-03-19T00:25:02.780Z,12.60
2023-03-19T00:27:50.235Z,12.57
2023-03-19T00:30:45.957Z,12.55
2023-03-19T00:33:49.238Z,12.52
2023-03-19T00:36:44.221Z,12.49
2023-03-19T00:39:37.288Z,12.44
2023-03-19T00:42:52.215Z,12.47
2023-03-19T00:45:37.738Z,12.40
2023-03-19T00:48:45.524Z,12.46
2023-03-19T00:51:52.201Z,12.49
2023-03-19T00:54:53.757Z,12.43
2023-03-19T00:57:39.480Z,12.33
2023-03-19T01:03:05.761Z,12.36
2023-03-19T01:05:47.958Z,12.29
2023-03-19T01:08:43.496Z,12.37
2023-03-19T01:11:39.065Z,12.34
2023-03-19T01:14:40.607Z,12.25
2023-03-19T01:17:39.867Z,12.28
2023-03-19T01:20:29.077Z,12.27
2023-03-19T01:23:35.485Z,12.24
2023-03-19T01:26:36.782Z,12.20
2023-03-19T01:29:26.251Z,12.17
2023-03-19T01:32:30.801Z,12.19
2023-03-19T01:35:54.556Z,12.17
2023-03-19T01:38:55.188Z,12.17
2023-03-19T01:41:55.603Z,12.08
2023-03-19T01:45:03.208Z,12.10
2023-03-19T01:48:12.788Z,12.10
2023-03-19T01:51:24.158Z,12.08
2023-03-19T01:54:39.042Z,12.08
2023-03-19T01:57:58.811Z,12.06
2023-03-19T02:01:04.448Z,12.04
2023-03-19T02:04:10.642Z,12.04
2023-03-19T02:07:00.302Z,12.06
2023-03-19T02:09:48.834Z,12.09
2023-03-19T02:12:33.407Z,12.15
2023-03-19T02:15:19.574Z,12.22
2023-03-19T02:18:02.513Z,12.28
2023-03-19T02:21:00.286Z,12.30
2023-03-19T02:24:09.834Z,12.22
2023-03-19T02:27:10.299Z,12.21
2023-03-19T02:30:11.795Z,12.12
2023-03-19T02:33:02.426Z,12.03
2023-03-19T02:35:54.559Z,11.94
2023-03-19T02:39:01.413Z,11.91
2023-03-19T02:41:48.417Z,11.93
2023-03-19T02:44:38.539Z,11.92
2023-03-19T02:47:40.381Z,11.85
2023-03-19T02:50:34.300Z,11.89
2023-03-19T02:53:16.807Z,11.89
2023-03-19T02:56:18.317Z,11.90
2023-03-19T02:59:09.513Z,11.94
2023-03-19T03:02:14.055Z,11.86
2023-03-19T03:05:03.541Z,11.86
2023-03-19T03:07:53.331Z,11.83
2023-03-19T03:10:47.871Z,11.82
2023-03-19T03:13:43.462Z,11.81
2023-03-19T03:16:47.968Z,11.76
2023-03-19T03:20:07.682Z,11.72
2023-03-19T03:23:00.588Z,11.64
2023-03-19T03:25:49.057Z,11.60
2023-03-19T03:28:31.347Z,11.58
2023-03-19T03:31:05.567Z,11.60
2023-03-19T03:33:57.094Z,11.61
2023-03-19T03:37:00.682Z,11.63
2023-03-19T03:39:47.393Z,11.64
2023-03-19T03:42:50.711Z,11.68
2023-03-19T03:45:51.021Z,11.69
2023-03-19T03:48:50.404Z,11.68
2023-03-19T03:51:43.622Z,11.62
2023-03-19T03:54:29.994Z,11.66
2023-03-19T03:57:26.201Z,11.64
2023-03-19T04:00:08.013Z,11.62
2023-03-19T04:03:00.880Z,11.62
2023-03-19T04:05:53.459Z,11.61
2023-03-19T04:08:43.502Z,11.58
2023-03-19T04:11:34.934Z,11.55
2023-03-19T04:14:24.267Z,11.51
2023-03-19T04:17:03.915Z,11.53
2023-03-19T04:19:51.849Z,11.53
2023-03-19T04:22:50.515Z,11.50
2023-03-19T04:25:39.855Z,11.49
2023-03-19T04:28:39.100Z,11.53
2023-03-19T04:31:25.493Z,11.51
2023-03-19T04:34:07.519Z,11.49
2023-03-19T04:37:00.997Z,11.49
2023-03-19T04:39:59.455Z,11.52
2023-03-19T04:42:50.269Z,11.47
2023-03-19T04:45:54.388Z,11.54
2023-03-19T04:49:01.058Z,11.55
2023-03-19T04:51:54.416Z,11.56
2023-03-19T04:54:49.731Z,11.54
2023-03-19T04:57:45.530Z,11.56
2023-03-19T05:00:44.966Z,11.62
2023-03-19T05:03:57.762Z,11.63
2023-03-19T05:06:57.272Z,11.68
2023-03-19T05:09:55.757Z,11.73
2023-03-19T05:13:01.228Z,11.79
2023-03-19T05:15:41.607Z,11.81
2023-03-19T05:21:49.922Z,11.88
2023-03-19T05:24:52.835Z,11.82
2023-03-19T05:27:50.209Z,11.80
2023-03-19T05:30:44.644Z,11.76
2023-03-19T05:33:50.204Z,11.76
2023-03-19T05:36:31.611Z,11.74
2023-03-19T05:39:40.029Z,11.71
2023-03-19T05:42:33.224Z,11.68
2023-03-19T05:48:51.384Z,11.55
2023-03-19T05:51:43.762Z,11.53
2023-03-19T05:54:36.035Z,11.53
2023-03-19T05:58:08.017Z,11.52
2023-03-19T06:00:59.587Z,11.56
2023-03-19T06:03:55.603Z,11.58
2023-03-19T06:10:03.608Z,11.54
2023-03-19T06:13:02.535Z,11.52
2023-03-19T06:15:58.582Z,11.52
2023-03-19T06:18:57.408Z,11.52
2023-03-19T06:21:46.858Z,11.51
2023-03-19T06:24:38.290Z,11.49
2023-03-19T06:27:33.893Z,11.50
2023-03-19T06:30:41.765Z,11.45
2023-03-19T06:34:05.206Z,11.45
2023-03-19T06:37:01.671Z,11.46
2023-03-19T06:39:55.214Z,11.47
2023-03-19T06:42:56.894Z,11.42
2023-03-19T06:45:40.251Z,11.37
2023-03-19T06:48:40.582Z,11.34
2023-03-19T06:51:25.636Z,11.35
2023-03-19T06:54:26.419Z,11.32
2023-03-19T06:57:19.921Z,11.31
2023-03-19T07:00:18.467Z,11.31
2023-03-19T07:03:03.902Z,11.31
2023-03-19T07:05:54.879Z,11.32
2023-03-19T07:08:55.030Z,11.35
2023-03-19T07:11:45.555Z,11.39
2023-03-19T07:14:35.943Z,11.43
2023-03-19T07:17:16.231Z,11.47
2023-03-19T07:20:10.578Z,11.49
2023-03-19T07:23:04.010Z,11.55
2023-03-19T07:26:13.334Z,11.59
2023-03-19T07:29:01.935Z,11.62
2023-03-19T07:31:42.759Z,11.69
2023-03-19T07:34:38.006Z,11.75
2023-03-19T07:37:14.772Z,11.81
2023-03-19T07:40:09.819Z,11.88
2023-03-19T07:43:03.030Z,12.00
2023-03-19T07:45:44.502Z,12.06
2023-03-19T07:48:39.519Z,12.09
2023-03-19T07:51:34.574Z,12.15
2023-03-19T07:54:26.947Z,12.22
2023-03-19T07:57:12.316Z,12.29
2023-03-19T08:00:13.726Z,12.35
2023-03-19T08:03:04.185Z,12.41
2023-03-19T08:05:50.994Z,12.43
2023-03-19T08:08:47.227Z,12.52
2023-03-19T08:11:35.692Z,12.52
2023-03-19T08:14:37.149Z,12.60
2023-03-19T08:17:45.738Z,12.66
2023-03-19T08:20:43.134Z,12.76
2023-03-19T08:23:44.337Z,12.97
2023-03-19T08:26:43.864Z,13.18
2023-03-19T08:32:49.048Z,13.34
2023-03-19T08:35:47.770Z,13.34
2023-03-19T08:38:45.305Z,13.31
2023-03-19T08:41:44.509Z,13.33
2023-03-19T08:44:29.603Z,13.33
2023-03-19T08:47:10.647Z,13.20
2023-03-19T08:50:04.001Z,13.22
2023-03-19T08:53:02.464Z,13.22
2023-03-19T08:55:48.700Z,13.28
2023-03-19T08:58:32.621Z,13.34
2023-03-19T09:01:28.037Z,13.37
2023-03-19T09:04:27.239Z,13.47
2023-03-19T09:07:10.721Z,13.54
2023-03-19T09:10:03.318Z,13.55
2023-03-19T09:12:58.868Z,13.47
2023-03-19T09:15:47.074Z,13.42
2023-03-19T09:18:47.511Z,13.36
2023-03-19T09:21:40.851Z,13.30
2023-03-19T09:24:49.674Z,13.36
2023-03-19T09:27:39.772Z,13.41
2023-03-19T09:30:39.925Z,13.42
2023-03-19T09:33:30.191Z,13.53
2023-03-19T09:36:21.552Z,13.80
2023-03-19T09:39:02.671Z,13.80
2023-03-19T09:42:16.303Z,13.77
2023-03-19T09:45:05.783Z,13.78
2023-03-19T09:50:50.327Z,13.74
2023-03-19T09:54:10.872Z,13.90
2023-03-19T09:57:01.485Z,14.00
2023-03-19T10:00:01.467Z,14.06
2023-03-19T10:02:47.471Z,14.18
2023-03-19T10:05:29.886Z,14.24
2023-03-19T10:08:48.022Z,14.30
2023-03-19T10:11:31.726Z,14.63
2023-03-19T10:14:30.029Z,14.90
2023-03-19T10:17:09.680Z,15.17
2023-03-19T10:20:05.607Z,15.20
2023-03-19T10:22:58.967Z,15.11
2023-03-19T10:25:51.560Z,15.19
2023-03-19T10:29:06.707Z,15.44
2023-03-19T10:32:18.299Z,15.66
2023-03-19T10:35:08.658Z,15.96
2023-03-19T10:37:55.974Z,15.97
2023-03-19T10:40:52.987Z,16.02
2023-03-19T10:43:34.284Z,15.91
2023-03-19T10:46:13.785Z,15.97
2023-03-19T10:49:03.350Z,15.93
2023-03-19T10:51:45.183Z,15.88
2023-03-19T10:54:40.959Z,15.90
2023-03-19T10:57:32.088Z,15.92
2023-03-19T11:00:30.143Z,15.93
2023-03-19T11:03:16.077Z,15.88
2023-03-19T11:06:03.503Z,15.95
2023-03-19T11:08:52.318Z,16.12
2023-03-19T11:11:59.864Z,16.19
2023-03-19T11:14:38.153Z,15.99
2023-03-19T11:17:36.100Z,16.01
2023-03-19T11:20:42.367Z,15.71
2023-03-19T11:23:32.505Z,15.73
2023-03-19T11:26:26.437Z,15.86
2023-03-19T11:29:10.964Z,15.97
2023-03-19T11:31:53.293Z,16.05
2023-03-19T11:35:00.848Z,16.01
2023-03-19T11:38:10.862Z,15.94
2023-03-19T11:41:08.223Z,15.97
2023-03-19T11:44:03.173Z,16.23
2023-03-19T11:46:48.355Z,16.67
2023-03-19T11:50:03.209Z,16.79
2023-03-19T11:52:55.366Z,16.71
2023-03-19T11:55:41.277Z,16.73
2023-03-19T11:59:03.872Z,16.62
2023-03-19T12:02:20.378Z,16.69
2023-03-19T12:05:19.823Z,16.66
2023-03-19T12:08:18.938Z,16.88
2023-03-19T12:11:26.941Z,16.77
2023-03-19T12:14:45.792Z,17.13
2023-03-19T12:17:29.903Z,17.26
2023-03-19T12:20:41.113Z,17.24
2023-03-19T12:23:29.408Z,17.18
2023-03-19T12:26:07.662Z,17.05
2023-03-19T12:28:46.725Z,16.97
2023-03-19T12:31:49.607Z,16.84
2023-03-19T12:35:02.194Z,16.74
2023-03-19T12:38:12.951Z,16.87
2023-03-19T12:41:04.513Z,16.84
2023-03-19T12:44:18.982Z,16.92
2023-03-19T12:47:17.451Z,16.88
2023-03-19T12:50:02.410Z,17.01
2023-03-19T12:53:05.202Z,16.77
2023-03-19T12:55:44.389Z,16.99
2023-03-19T12:58:25.656Z,17.23
2023-03-19T13:01:02.775Z,17.17
2023-03-19T13:03:42.131Z,17.29
2023-03-19T13:06:28.023Z,17.37
2023-03-19T13:09:11.230Z,16.96
2023-03-19T13:12:17.077Z,17.09
2023-03-19T13:15:19.982Z,17.34
2023-03-19T13:18:17.766Z,17.36
2023-03-19T13:21:03.341Z,17.08
2023-03-19T13:23:44.558Z,17.06
2023-03-19T13:26:28.747Z,17.07
2023-03-19T13:29:25.319Z,16.97
2023-03-19T13:32:31.427Z,16.85
2023-03-19T13:35:32.476Z,16.61
2023-03-19T13:38:11.430Z,16.41
2023-03-19T13:41:20.166Z,16.36
2023-03-19T13:44:13.605Z,16.13
2023-03-19T13:47:04.031Z,16.14
2023-03-19T13:50:35.979Z,16.24
2023-03-19T13:53:34.370Z,16.34
2023-03-19T13:56:30.819Z,16.18
2023-03-19T13:59:35.399Z,16.23
2023-03-19T14:02:52.967Z,16.35
2023-03-19T14:05:28.594Z,16.42
2023-03-19T14:08:24.719Z,16.59
2023-03-19T14:11:07.252Z,16.50
2023-03-19T14:14:09.563Z,16.69
2023-03-19T14:17:09.100Z,16.79
2023-03-19T14:20:09.516Z,16.97
2023-03-19T14:23:36.251Z,17.08
2023-03-19T14:26:41.909Z,17.40
2023-03-19T14:29:32.551Z,17.45
2023-03-19T14:32:24.798Z,17.62
2023-03-19T14:35:27.088Z,17.76
2023-03-19T14:38:40.231Z,17.81
2023-03-19T14:41:29.275Z,18.06
2023-03-19T14:44:47.514Z,17.84
2023-03-19T14:48:01.829Z,17.35
2023-03-19T14:51:04.583Z,17.02
2023-03-19T14:54:01.304Z,16.88
2023-03-19T14:56:49.635Z,16.55
2023-03-19T14:59:32.698Z,16.39
2023-03-19T15:02:37.313Z,16.29
2023-03-19T15:05:32.986Z,16.02
2023-03-19T15:08:46.328Z,15.73
2023-03-19T15:11:38.516Z,15.53
2023-03-19T15:14:54.247Z,15.37
2023-03-19T15:17:40.630Z,15.18
2023-03-19T15:21:00.144Z,15.10
2023-03-19T15:23:40.667Z,14.98
2023-03-19T15:26:35.165Z,14.88
2023-03-19T15:29:18.738Z,14.90
2023-03-19T15:32:10.472Z,14.81
2023-03-19T15:35:09.617Z,14.78
2023-03-19T15:38:26.043Z,14.75
2023-03-19T15:41:09.286Z,14.70
2023-03-19T15:44:08.893Z,14.77
2023-03-19T15:47:01.139Z,14.80
2023-03-19T15:49:35.339Z,14.73
2023-03-19T15:52:34.682Z,14.73
2023-03-19T15:55:18.965Z,14.73
2023-03-19T15:58:04.946Z,14.69
2023-03-19T16:00:57.729Z,14.64
2023-03-19T16:03:56.970Z,14.61
2023-03-19T16:06:37.611Z,14.53
2023-03-19T16:09:35.076Z,14.54
2023-03-19T16:12:48.925Z,14.49
2023-03-19T16:15:43.667Z,14.45
2023-03-19T16:19:10.293Z,14.44
2023-03-19T16:21:51.464Z,14.36
2023-03-19T16:24:39.730Z,14.38
2023-03-19T16:27:41.087Z,14.32
2023-03-19T16:30:37.010Z,14.28
2023-03-19T16:33:33.193Z,14.29
2023-03-19T16:36:25.128Z,14.25
2023-03-19T16:39:33.219Z,14.16
2023-03-19T16:43:02.605Z,14.06
2023-03-19T16:45:55.958Z,13.93
2023-03-19T16:48:48.184Z,13.91
2023-03-19T16:51:30.232Z,13.87
2023-03-19T16:54:36.129Z,13.85
2023-03-19T16:57:30.598Z,13.81
2023-03-19T17:00:17.499Z,13.80
2023-03-19T17:03:21.302Z,13.83
2023-03-19T17:06:17.689Z,13.83
2023-03-19T17:09:15.220Z,13.86
2023-03-19T17:12:09.558Z,13.86
2023-03-19T17:14:59.767Z,13.82
2023-03-19T17:17:36.663Z,13.87
2023-03-19T17:20:34.801Z,13.87
2023-03-19T17:23:35.696Z,13.84
2023-03-19T17:26:44.659Z,13.83
2023-03-19T17:29:21.987Z,13.87
2023-03-19T17:35:36.605Z,14.02
2023-03-19T17:38:38.745Z,14.06
2023-03-19T17:41:33.527Z,14.06
2023-03-19T17:44:21.107Z,14.04
2023-03-19T17:47:16.625Z,14.01
2023-03-19T17:50:03.048Z,13.96
2023-03-19T17:53:05.446Z,13.93
2023-03-19T17:55:40.537Z,13.90
2023-03-19T17:58:32.822Z,13.94
2023-03-19T18:01:02.159Z,13.98
2023-03-19T18:03:42.053Z,14.03
2023-03-19T18:06:28.405Z,14.01
2023-03-19T18:09:20.548Z,13.93
2023-03-19T18:11:59.334Z,13.87
2023-03-19T18:14:45.219Z,13.82
2023-03-19T18:17:33.780Z,13.78
2023-03-19T18:20:17.307Z,13.75
2023-03-19T18:23:09.734Z,13.72
2023-03-19T18:25:47.855Z,13.69
2023-03-19T18:28:36.241Z,13.71
2023-03-19T18:31:28.772Z,13.75
2023-03-19T18:34:26.301Z,13.66
2023-03-19T18:37:19.681Z,13.67
2023-03-19T18:40:19.993Z,13.72
2023-03-19T18:43:18.263Z,13.84
2023-03-19T18:46:14.431Z,13.96
2023-03-19T18:49:01.847Z,14.00
2023-03-19T18:51:36.969Z,13.95
2023-03-19T18:54:21.019Z,13.91
2023-03-19T18:57:04.959Z,13.89
2023-03-19T18:59:38.346Z,13.89
2023-03-19T19:02:43.983Z,13.89
2023-03-19T19:05:34.942Z,13.86
2023-03-19T19:08:37.788Z,13.80
2023-03-19T19:11:24.989Z,13.78
2023-03-19T19:14:31.608Z,13.81
2023-03-19T19:17:17.678Z,13.82
2023-03-19T19:20:15.183Z,13.82
2023-03-19T19:23:03.262Z,13.87
2023-03-19T19:25:37.188Z,13.89
2023-03-19T19:28:46.357Z,13.91
2023-03-19T19:31:37.345Z,13.89
2023-03-19T19:34:36.082Z,13.93
2023-03-19T19:37:29.441Z,13.95
2023-03-19T19:40:33.681Z,14.03
2023-03-19T19:43:27.493Z,14.08
2023-03-19T19:46:09.443Z,14.12
2023-03-19T19:49:00.704Z,14.13
2023-03-19T19:51:39.011Z,14.13
2023-03-19T19:54:33.339Z,14.14
2023-03-19T19:57:34.340Z,14.18
2023-03-19T20:00:23.920Z,14.15
2023-03-19T20:03:10.410Z,14.12
2023-03-19T20:05:57.228Z,14.14
2023-03-19T20:08:44.114Z,14.16
2023-03-19T20:11:34.424Z,14.16
2023-03-19T20:14:29.871Z,14.11
2023-03-19T20:17:16.124Z,14.09
2023-03-19T20:20:03.494Z,14.13
2023-03-19T20:22:59.052Z,14.17
2023-03-19T20:25:48.309Z,14.24
2023-03-19T20:28:53.898Z,14.28
2023-03-19T20:31:37.535Z,14.31
2023-03-19T20:34:38.501Z,14.30
2023-03-19T20:37:34.492Z,14.27
2023-03-19T20:40:32.790Z,14.32
2023-03-19T20:43:36.580Z,14.32
2023-03-19T20:46:28.765Z,14.30
2023-03-19T20:49:18.995Z,14.34
2023-03-19T20:52:17.477Z,14.36
2023-03-19T20:55:14.250Z,14.36
2023-03-19T20:57:49.864Z,14.36
2023-03-19T21:01:00.985Z,14.42
2023-03-19T21:03:45.677Z,14.48
2023-03-19T21:06:36.802Z,14.55
2023-03-19T21:09:36.752Z,14.52
2023-03-19T21:12:20.424Z,14.47
2023-03-19T21:14:56.468Z,14.41
2023-03-19T21:17:37.927Z,14.46
2023-03-19T21:20:30.144Z,14.45
2023-03-19T21:23:25.563Z,14.45
2023-03-19T21:26:22.824Z,14.45
2023-03-19T21:29:21.196Z,14.51
2023-03-19T21:32:14.071Z,14.55
2023-03-19T21:35:06.831Z,14.57
2023-03-19T21:38:00.255Z,14.57
2023-03-19T21:40:45.818Z,14.54
2023-03-19T21:43:33.134Z,14.49
2023-03-19T21:46:24.061Z,14.58
2023-03-19T21:49:20.431Z,14.60
2023-03-19T21:52:17.874Z,14.59
2023-03-19T21:55:08.250Z,14.60
2023-03-19T21:57:42.089Z,14.58
2023-03-19T22:00:38.647Z,14.51
2023-03-19T22:03:33.050Z,14.49
2023-03-19T22:09:15.524Z,14.53
2023-03-19T22:12:05.834Z,14.55
2023-03-19T22:14:57.255Z,14.52
2023-03-19T22:17:38.128Z,14.53
2023-03-19T22:20:40.500Z,14.56
2023-03-19T22:23:30.776Z,14.55
2023-03-19T22:26:36.237Z,14.56
2023-03-19T22:29:12.409Z,14.54
2023-03-19T22:32:05.383Z,14.49
2023-03-19T22:35:04.980Z,14.45
2023-03-19T22:38:00.070Z,14.41
2023-03-19T22:40:55.319Z,14.45
2023-03-19T22:43:40.566Z,14.49
2023-03-19T22:46:42.857Z,14.55
2023-03-19T22:49:18.233Z,14.57
2023-03-19T22:52:00.684Z,14.55
2023-03-19T22:54:40.770Z,14.51
2023-03-19T22:57:19.922Z,14.51
2023-03-19T23:00:10.292Z,14.52
2023-03-19T23:03:08.595Z,14.49
2023-03-19T23:05:56.737Z,14.47
2023-03-19T23:08:43.592Z,14.45
2023-03-19T23:11:28.487Z,14.50
2023-03-19T23:14:28.480Z,14.54
2023-03-19T23:17:29.630Z,14.54
2023-03-19T23:20:10.402Z,14.54
2023-03-19T23:22:56.487Z,14.54
2023-03-19T23:25:32.881Z,14.55
2023-03-19T23:28:18.943Z,14.58
2023-03-19T23:30:57.020Z,14.62
2023-03-19T23:33:37.488Z,14.59
2023-03-19T23:36:32.206Z,14.61
2023-03-19T23:39:08.582Z,14.62
2023-03-19T23:41:48.626Z,14.63
2023-03-19T23:44:27.586Z,14.65
2023-03-19T23:47:24.886Z,14.64
2023-03-19T23:50:21.136Z,14.63
2023-03-19T23:53:04.157Z,14.64
2023-03-19T23:55:58.354Z,14.65
2023-03-19T23:58:34.474Z,14.69
